sensor_id;sensor_type;location;lat;lon;timestamp;P1;durP1;ratioP1;P2;durP2;ratioP2
76296;SDS011;65104;52.994;6.552;2023-07-20T00:01:12;1.52;;;1.27;;
76296;SDS011;65104;52.994;6.552;2023-07-20T00:03:37;2.50;;;1.40;;
76296;SDS011;65104;52.994;6.552;2023-07-20T00:06:03;1.30;;;1.20;;
76296;SDS011;65104;52.994;6.552;2023-07-20T00:08:29;1.95;;;1.15;;
76296;SDS011;65104;52.994;6.552;2023-07-20T00:10:54;1.42;;;1.23;;
76296;SDS011;65104;52.994;6.552;2023-07-20T00:13:20;0.90;;;0.80;;
76296;SDS011;65104;52.994;6.552;2023-07-20T00:15:46;1.13;;;1.02;;
76296;SDS011;65104;52.994;6.552;2023-07-20T00:18:11;1.08;;;0.98;;
76296;SDS011;65104;52.994;6.552;2023-07-20T00:20:37;0.95;;;0.73;;
76296;SDS011;65104;52.994;6.552;2023-07-20T00:23:02;0.70;;;0.70;;
76296;SDS011;65104;52.994;6.552;2023-07-20T00:25:28;1.13;;;0.77;;
76296;SDS011;65104;52.994;6.552;2023-07-20T00:27:53;1.67;;;0.88;;
76296;SDS011;65104;52.994;6.552;2023-07-20T00:30:19;1.30;;;1.10;;
76296;SDS011;65104;52.994;6.552;2023-07-20T00:32:44;1.95;;;0.90;;
76296;SDS011;65104;52.994;6.552;2023-07-20T00:35:10;1.05;;;0.90;;
76296;SDS011;65104;52.994;6.552;2023-07-20T00:37:36;0.98;;;0.88;;
76296;SDS011;65104;52.994;6.552;2023-07-20T00:40:02;1.95;;;1.27;;
76296;SDS011;65104;52.994;6.552;2023-07-20T00:42:34;1.52;;;1.10;;
76296;SDS011;65104;52.994;6.552;2023-07-20T00:45:00;2.00;;;1.27;;
76296;SDS011;65104;52.994;6.552;2023-07-20T00:47:26;1.30;;;1.10;;
76296;SDS011;65104;52.994;6.552;2023-07-20T00:49:52;1.30;;;1.20;;
76296;SDS011;65104;52.994;6.552;2023-07-20T00:52:18;2.05;;;1.35;;
76296;SDS011;65104;52.994;6.552;2023-07-20T00:54:45;1.58;;;1.08;;
76296;SDS011;65104;52.994;6.552;2023-07-20T00:57:11;2.85;;;1.65;;
76296;SDS011;65104;52.994;6.552;2023-07-20T00:59:39;1.48;;;1.35;;
76296;SDS011;65104;52.994;6.552;2023-07-20T01:02:05;1.40;;;1.30;;
76296;SDS011;65104;52.994;6.552;2023-07-20T01:04:30;2.05;;;1.15;;
76296;SDS011;65104;52.994;6.552;2023-07-20T01:09:56;1.13;;;1.02;;
76296;SDS011;65104;52.994;6.552;2023-07-20T01:12:41;1.20;;;1.02;;
76296;SDS011;65104;52.994;6.552;2023-07-20T01:15:08;1.30;;;1.20;;
76296;SDS011;65104;52.994;6.552;2023-07-20T01:17:34;2.45;;;1.67;;
76296;SDS011;65104;52.994;6.552;2023-07-20T01:20:00;2.13;;;1.50;;
76296;SDS011;65104;52.994;6.552;2023-07-20T01:33:16;2.83;;;2.47;;
76296;SDS011;65104;52.994;6.552;2023-07-20T01:35:43;3.63;;;2.70;;
76296;SDS011;65104;52.994;6.552;2023-07-20T01:40:37;4.00;;;2.90;;
76296;SDS011;65104;52.994;6.552;2023-07-20T01:43:03;3.00;;;2.70;;
76296;SDS011;65104;52.994;6.552;2023-07-20T01:45:29;4.20;;;2.70;;
76296;SDS011;65104;52.994;6.552;2023-07-20T01:47:54;4.93;;;3.20;;
76296;SDS011;65104;52.994;6.552;2023-07-20T01:50:19;3.92;;;2.85;;
76296;SDS011;65104;52.994;6.552;2023-07-20T01:52:45;3.92;;;2.78;;
76296;SDS011;65104;52.994;6.552;2023-07-20T01:55:10;4.35;;;3.22;;
76296;SDS011;65104;52.994;6.552;2023-07-20T01:57:35;4.15;;;3.00;;
76296;SDS011;65104;52.994;6.552;2023-07-20T02:00:01;4.30;;;2.88;;
76296;SDS011;65104;52.994;6.552;2023-07-20T02:02:26;3.22;;;2.60;;
76296;SDS011;65104;52.994;6.552;2023-07-20T02:04:53;4.95;;;3.10;;
76296;SDS011;65104;52.994;6.552;2023-07-20T02:07:18;4.05;;;3.22;;
76296;SDS011;65104;52.994;6.552;2023-07-20T02:09:44;5.47;;;3.38;;
76296;SDS011;65104;52.994;6.552;2023-07-20T02:12:09;5.95;;;3.45;;
76296;SDS011;65104;52.994;6.552;2023-07-20T02:14:34;5.22;;;3.17;;
76296;SDS011;65104;52.994;6.552;2023-07-20T02:17:00;4.45;;;3.30;;
76296;SDS011;65104;52.994;6.552;2023-07-20T02:19:26;4.53;;;3.35;;
76296;SDS011;65104;52.994;6.552;2023-07-20T02:21:52;4.53;;;2.92;;
76296;SDS011;65104;52.994;6.552;2023-07-20T02:24:18;5.90;;;3.42;;
76296;SDS011;65104;52.994;6.552;2023-07-20T02:26:43;4.75;;;3.63;;
76296;SDS011;65104;52.994;6.552;2023-07-20T02:29:09;5.13;;;3.40;;
76296;SDS011;65104;52.994;6.552;2023-07-20T02:31:36;4.43;;;3.08;;
76296;SDS011;65104;52.994;6.552;2023-07-20T02:34:02;4.68;;;2.95;;
76296;SDS011;65104;52.994;6.552;2023-07-20T02:36:28;4.55;;;3.67;;
76296;SDS011;65104;52.994;6.552;2023-07-20T02:38:53;3.80;;;3.22;;
76296;SDS011;65104;52.994;6.552;2023-07-20T02:41:19;5.35;;;3.42;;
76296;SDS011;65104;52.994;6.552;2023-07-20T02:43:45;3.40;;;2.72;;
76296;SDS011;65104;52.994;6.552;2023-07-20T02:46:10;4.63;;;3.10;;
76296;SDS011;65104;52.994;6.552;2023-07-20T02:48:35;4.95;;;3.40;;
76296;SDS011;65104;52.994;6.552;2023-07-20T02:51:01;3.13;;;2.45;;
76296;SDS011;65104;52.994;6.552;2023-07-20T02:53:26;3.80;;;2.67;;
76296;SDS011;65104;52.994;6.552;2023-07-20T02:55:52;4.47;;;3.20;;
76296;SDS011;65104;52.994;6.552;2023-07-20T02:58:17;4.78;;;2.70;;
76296;SDS011;65104;52.994;6.552;2023-07-20T03:00:42;3.53;;;2.88;;
76296;SDS011;65104;52.994;6.552;2023-07-20T03:03:09;3.80;;;2.47;;
76296;SDS011;65104;52.994;6.552;2023-07-20T03:05:36;3.95;;;2.90;;
76296;SDS011;65104;52.994;6.552;2023-07-20T03:08:04;3.30;;;2.80;;
76296;SDS011;65104;52.994;6.552;2023-07-20T03:10:31;3.90;;;2.85;;
76296;SDS011;65104;52.994;6.552;2023-07-20T03:12:57;4.63;;;2.88;;
76296;SDS011;65104;52.994;6.552;2023-07-20T03:15:22;3.80;;;2.80;;
76296;SDS011;65104;52.994;6.552;2023-07-20T03:17:47;5.30;;;2.58;;
76296;SDS011;65104;52.994;6.552;2023-07-20T03:20:13;3.55;;;2.72;;
76296;SDS011;65104;52.994;6.552;2023-07-20T03:22:38;3.20;;;2.30;;
76296;SDS011;65104;52.994;6.552;2023-07-20T03:25:04;3.67;;;2.90;;
76296;SDS011;65104;52.994;6.552;2023-07-20T03:27:29;3.33;;;2.40;;
76296;SDS011;65104;52.994;6.552;2023-07-20T03:29:55;3.50;;;2.45;;
76296;SDS011;65104;52.994;6.552;2023-07-20T03:32:20;5.60;;;2.83;;
76296;SDS011;65104;52.994;6.552;2023-07-20T03:34:45;3.22;;;2.35;;
76296;SDS011;65104;52.994;6.552;2023-07-20T03:37:12;2.55;;;2.15;;
76296;SDS011;65104;52.994;6.552;2023-07-20T03:39:38;4.13;;;2.75;;
76296;SDS011;65104;52.994;6.552;2023-07-20T03:42:03;3.53;;;2.40;;
76296;SDS011;65104;52.994;6.552;2023-07-20T03:44:30;3.30;;;2.28;;
76296;SDS011;65104;52.994;6.552;2023-07-20T03:46:55;3.33;;;2.20;;
76296;SDS011;65104;52.994;6.552;2023-07-20T03:49:20;3.45;;;2.53;;
76296;SDS011;65104;52.994;6.552;2023-07-20T03:51:46;5.15;;;2.50;;
76296;SDS011;65104;52.994;6.552;2023-07-20T03:54:11;3.72;;;2.38;;
76296;SDS011;65104;52.994;6.552;2023-07-20T03:56:36;3.65;;;2.63;;
76296;SDS011;65104;52.994;6.552;2023-07-20T03:59:02;3.83;;;2.30;;
76296;SDS011;65104;52.994;6.552;2023-07-20T04:01:28;2.45;;;1.88;;
76296;SDS011;65104;52.994;6.552;2023-07-20T04:03:53;4.60;;;2.58;;
76296;SDS011;65104;52.994;6.552;2023-07-20T04:06:19;2.95;;;1.98;;
76296;SDS011;65104;52.994;6.552;2023-07-20T04:08:44;3.28;;;2.40;;
76296;SDS011;65104;52.994;6.552;2023-07-20T04:11:12;3.38;;;2.58;;
76296;SDS011;65104;52.994;6.552;2023-07-20T04:13:37;4.82;;;2.03;;
76296;SDS011;65104;52.994;6.552;2023-07-20T04:16:03;3.17;;;2.78;;
76296;SDS011;65104;52.994;6.552;2023-07-20T04:18:28;2.88;;;2.25;;
76296;SDS011;65104;52.994;6.552;2023-07-20T04:20:54;2.38;;;2.10;;
76296;SDS011;65104;52.994;6.552;2023-07-20T04:23:19;3.15;;;2.47;;
76296;SDS011;65104;52.994;6.552;2023-07-20T04:25:44;1.95;;;1.75;;
76296;SDS011;65104;52.994;6.552;2023-07-20T04:28:10;4.35;;;2.25;;
76296;SDS011;65104;52.994;6.552;2023-07-20T04:30:35;2.70;;;2.00;;
76296;SDS011;65104;52.994;6.552;2023-07-20T04:33:02;3.72;;;1.90;;
76296;SDS011;65104;52.994;6.552;2023-07-20T04:35:48;4.80;;;2.17;;
76296;SDS011;65104;52.994;6.552;2023-07-20T04:38:13;2.85;;;2.30;;
76296;SDS011;65104;52.994;6.552;2023-07-20T04:40:42;2.63;;;1.90;;
76296;SDS011;65104;52.994;6.552;2023-07-20T04:43:08;2.70;;;2.13;;
76296;SDS011;65104;52.994;6.552;2023-07-20T04:45:33;2.33;;;1.92;;
76296;SDS011;65104;52.994;6.552;2023-07-20T04:47:58;3.17;;;1.98;;
76296;SDS011;65104;52.994;6.552;2023-07-20T04:50:24;2.50;;;1.73;;
76296;SDS011;65104;52.994;6.552;2023-07-20T04:52:50;2.50;;;1.98;;
76296;SDS011;65104;52.994;6.552;2023-07-20T04:55:15;4.25;;;1.77;;
76296;SDS011;65104;52.994;6.552;2023-07-20T04:57:41;2.10;;;1.88;;
76296;SDS011;65104;52.994;6.552;2023-07-20T05:00:06;2.55;;;1.80;;
76296;SDS011;65104;52.994;6.552;2023-07-20T05:02:33;2.53;;;2.00;;
76296;SDS011;65104;52.994;6.552;2023-07-20T05:04:58;3.97;;;2.15;;
76296;SDS011;65104;52.994;6.552;2023-07-20T05:07:23;2.75;;;1.90;;
76296;SDS011;65104;52.994;6.552;2023-07-20T05:09:49;2.63;;;2.00;;
76296;SDS011;65104;52.994;6.552;2023-07-20T05:12:14;2.08;;;1.88;;
76296;SDS011;65104;52.994;6.552;2023-07-20T05:14:39;3.13;;;2.00;;
76296;SDS011;65104;52.994;6.552;2023-07-20T05:17:06;2.72;;;1.55;;
76296;SDS011;65104;52.994;6.552;2023-07-20T05:19:32;2.35;;;1.58;;
76296;SDS011;65104;52.994;6.552;2023-07-20T05:21:57;4.22;;;1.70;;
76296;SDS011;65104;52.994;6.552;2023-07-20T05:24:22;2.60;;;1.73;;
76296;SDS011;65104;52.994;6.552;2023-07-20T05:26:48;2.00;;;1.85;;
76296;SDS011;65104;52.994;6.552;2023-07-20T05:29:13;3.63;;;2.25;;
76296;SDS011;65104;52.994;6.552;2023-07-20T05:31:38;5.15;;;1.77;;
76296;SDS011;65104;52.994;6.552;2023-07-20T05:34:04;1.92;;;1.30;;
76296;SDS011;65104;52.994;6.552;2023-07-20T05:36:30;2.33;;;1.30;;
76296;SDS011;65104;52.994;6.552;2023-07-20T05:38:56;1.45;;;1.30;;
76296;SDS011;65104;52.994;6.552;2023-07-20T05:41:21;1.80;;;1.63;;
76296;SDS011;65104;52.994;6.552;2023-07-20T05:43:47;7.78;;;2.45;;
76296;SDS011;65104;52.994;6.552;2023-07-20T05:46:13;6.15;;;2.10;;
76296;SDS011;65104;52.994;6.552;2023-07-20T05:48:38;6.95;;;2.40;;
76296;SDS011;65104;52.994;6.552;2023-07-20T05:51:04;6.43;;;2.17;;
76296;SDS011;65104;52.994;6.552;2023-07-20T05:53:30;4.15;;;2.42;;
76296;SDS011;65104;52.994;6.552;2023-07-20T05:55:55;2.58;;;1.70;;
76296;SDS011;65104;52.994;6.552;2023-07-20T05:58:21;3.05;;;1.90;;
76296;SDS011;65104;52.994;6.552;2023-07-20T06:00:48;2.05;;;1.67;;
76296;SDS011;65104;52.994;6.552;2023-07-20T06:03:14;3.33;;;1.77;;
76296;SDS011;65104;52.994;6.552;2023-07-20T06:05:41;2.65;;;1.58;;
76296;SDS011;65104;52.994;6.552;2023-07-20T06:08:07;4.50;;;1.85;;
76296;SDS011;65104;52.994;6.552;2023-07-20T06:10:32;2.40;;;1.45;;
76296;SDS011;65104;52.994;6.552;2023-07-20T06:12:57;2.03;;;1.13;;
76296;SDS011;65104;52.994;6.552;2023-07-20T06:15:27;1.92;;;1.60;;
76296;SDS011;65104;52.994;6.552;2023-07-20T06:17:54;1.58;;;1.00;;
76296;SDS011;65104;52.994;6.552;2023-07-20T06:20:20;1.70;;;1.52;;
76296;SDS011;65104;52.994;6.552;2023-07-20T06:22:47;2.22;;;1.25;;
76296;SDS011;65104;52.994;6.552;2023-07-20T06:25:12;4.72;;;1.38;;
76296;SDS011;65104;52.994;6.552;2023-07-20T06:27:38;3.28;;;1.30;;
76296;SDS011;65104;52.994;6.552;2023-07-20T06:30:03;2.50;;;1.45;;
76296;SDS011;65104;52.994;6.552;2023-07-20T06:32:29;1.55;;;1.17;;
76296;SDS011;65104;52.994;6.552;2023-07-20T06:34:54;2.72;;;1.17;;
76296;SDS011;65104;52.994;6.552;2023-07-20T06:37:20;1.58;;;1.13;;
76296;SDS011;65104;52.994;6.552;2023-07-20T06:39:45;2.20;;;1.40;;
76296;SDS011;65104;52.994;6.552;2023-07-20T06:42:11;1.25;;;0.88;;
76296;SDS011;65104;52.994;6.552;2023-07-20T06:44:36;1.35;;;0.90;;
76296;SDS011;65104;52.994;6.552;2023-07-20T06:47:02;1.00;;;0.70;;
76296;SDS011;65104;52.994;6.552;2023-07-20T06:49:27;2.42;;;0.80;;
76296;SDS011;65104;52.994;6.552;2023-07-20T06:51:53;0.80;;;0.70;;
76296;SDS011;65104;52.994;6.552;2023-07-20T06:54:18;1.13;;;0.50;;
76296;SDS011;65104;52.994;6.552;2023-07-20T06:56:44;2.78;;;0.82;;
76296;SDS011;65104;52.994;6.552;2023-07-20T06:59:09;0.65;;;0.65;;
76296;SDS011;65104;52.994;6.552;2023-07-20T07:01:34;0.60;;;0.60;;
76296;SDS011;65104;52.994;6.552;2023-07-20T07:04:00;0.85;;;0.80;;
76296;SDS011;65104;52.994;6.552;2023-07-20T07:06:25;1.40;;;0.73;;
76296;SDS011;65104;52.994;6.552;2023-07-20T07:08:52;1.13;;;0.75;;
76296;SDS011;65104;52.994;6.552;2023-07-20T07:11:18;0.75;;;0.63;;
76296;SDS011;65104;52.994;6.552;2023-07-20T07:13:44;1.27;;;0.90;;
76296;SDS011;65104;52.994;6.552;2023-07-20T07:16:12;2.28;;;1.02;;
76296;SDS011;65104;52.994;6.552;2023-07-20T07:18:37;3.05;;;0.88;;
76296;SDS011;65104;52.994;6.552;2023-07-20T07:21:05;1.33;;;0.90;;
76296;SDS011;65104;52.994;6.552;2023-07-20T07:23:30;1.52;;;0.60;;
76296;SDS011;65104;52.994;6.552;2023-07-20T07:25:56;2.63;;;1.00;;
76296;SDS011;65104;52.994;6.552;2023-07-20T07:28:21;1.05;;;0.90;;
76296;SDS011;65104;52.994;6.552;2023-07-20T07:30:47;1.70;;;0.57;;
76296;SDS011;65104;52.994;6.552;2023-07-20T07:33:12;1.45;;;0.77;;
76296;SDS011;65104;52.994;6.552;2023-07-20T07:35:38;3.42;;;1.42;;
76296;SDS011;65104;52.994;6.552;2023-07-20T07:38:03;1.05;;;0.80;;
76296;SDS011;65104;52.994;6.552;2023-07-20T07:40:31;1.55;;;0.70;;
76296;SDS011;65104;52.994;6.552;2023-07-20T07:42:56;1.98;;;0.73;;
76296;SDS011;65104;52.994;6.552;2023-07-20T07:45:22;2.22;;;0.90;;
76296;SDS011;65104;52.994;6.552;2023-07-20T07:47:47;2.42;;;0.80;;
76296;SDS011;65104;52.994;6.552;2023-07-20T07:50:12;1.58;;;0.77;;
76296;SDS011;65104;52.994;6.552;2023-07-20T07:52:38;3.03;;;1.65;;
76296;SDS011;65104;52.994;6.552;2023-07-20T07:55:03;1.45;;;1.35;;
76296;SDS011;65104;52.994;6.552;2023-07-20T07:57:29;1.05;;;0.50;;
76296;SDS011;65104;52.994;6.552;2023-07-20T07:59:54;1.67;;;0.85;;
76296;SDS011;65104;52.994;6.552;2023-07-20T08:02:19;1.67;;;0.60;;
76296;SDS011;65104;52.994;6.552;2023-07-20T08:04:46;2.95;;;0.80;;
76296;SDS011;65104;52.994;6.552;2023-07-20T08:07:11;1.48;;;0.82;;
76296;SDS011;65104;52.994;6.552;2023-07-20T08:09:36;0.50;;;0.47;;
76296;SDS011;65104;52.994;6.552;2023-07-20T08:12:02;2.00;;;0.70;;
76296;SDS011;65104;52.994;6.552;2023-07-20T08:14:28;1.98;;;0.60;;
76296;SDS011;65104;52.994;6.552;2023-07-20T08:16:54;0.98;;;0.68;;
76296;SDS011;65104;52.994;6.552;2023-07-20T08:19:19;2.35;;;0.60;;
76296;SDS011;65104;52.994;6.552;2023-07-20T08:21:45;0.95;;;0.68;;
76296;SDS011;65104;52.994;6.552;2023-07-20T08:24:12;1.52;;;0.65;;
76296;SDS011;65104;52.994;6.552;2023-07-20T08:26:38;2.45;;;0.90;;
76296;SDS011;65104;52.994;6.552;2023-07-20T08:29:03;0.75;;;0.63;;
76296;SDS011;65104;52.994;6.552;2023-07-20T08:31:28;1.35;;;0.75;;
76296;SDS011;65104;52.994;6.552;2023-07-20T08:33:54;1.55;;;0.70;;
76296;SDS011;65104;52.994;6.552;2023-07-20T08:36:21;2.15;;;0.63;;
76296;SDS011;65104;52.994;6.552;2023-07-20T08:38:47;1.58;;;0.80;;
76296;SDS011;65104;52.994;6.552;2023-07-20T08:41:14;1.55;;;0.70;;
76296;SDS011;65104;52.994;6.552;2023-07-20T08:43:40;1.00;;;0.60;;
76296;SDS011;65104;52.994;6.552;2023-07-20T08:46:07;1.35;;;0.65;;
76296;SDS011;65104;52.994;6.552;2023-07-20T08:48:35;1.13;;;0.60;;
76296;SDS011;65104;52.994;6.552;2023-07-20T08:51:00;1.08;;;0.95;;
76296;SDS011;65104;52.994;6.552;2023-07-20T08:53:29;2.05;;;1.08;;
76296;SDS011;65104;52.994;6.552;2023-07-20T08:55:56;2.03;;;0.80;;
76296;SDS011;65104;52.994;6.552;2023-07-20T08:58:24;2.00;;;0.82;;
76296;SDS011;65104;52.994;6.552;2023-07-20T09:00:51;1.20;;;0.85;;
76296;SDS011;65104;52.994;6.552;2023-07-20T09:03:18;1.92;;;0.57;;
76296;SDS011;65104;52.994;6.552;2023-07-20T09:05:44;1.33;;;0.65;;
76296;SDS011;65104;52.994;6.552;2023-07-20T09:08:10;1.15;;;0.60;;
76296;SDS011;65104;52.994;6.552;2023-07-20T09:10:35;4.85;;;0.85;;
76296;SDS011;65104;52.994;6.552;2023-07-20T09:13:01;1.60;;;0.98;;
76296;SDS011;65104;52.994;6.552;2023-07-20T09:15:26;1.75;;;0.88;;
76296;SDS011;65104;52.994;6.552;2023-07-20T09:17:52;3.03;;;0.95;;
76296;SDS011;65104;52.994;6.552;2023-07-20T09:20:19;1.75;;;0.95;;
76296;SDS011;65104;52.994;6.552;2023-07-20T09:22:45;1.20;;;0.70;;
76296;SDS011;65104;52.994;6.552;2023-07-20T09:25:12;1.33;;;0.80;;
76296;SDS011;65104;52.994;6.552;2023-07-20T09:27:40;1.20;;;0.70;;
76296;SDS011;65104;52.994;6.552;2023-07-20T09:30:06;3.75;;;0.88;;
76296;SDS011;65104;52.994;6.552;2023-07-20T09:32:38;1.38;;;0.90;;
76296;SDS011;65104;52.994;6.552;2023-07-20T09:35:14;1.00;;;0.60;;
76296;SDS011;65104;52.994;6.552;2023-07-20T09:37:50;1.65;;;1.05;;
76296;SDS011;65104;52.994;6.552;2023-07-20T09:40:24;3.22;;;0.88;;
76296;SDS011;65104;52.994;6.552;2023-07-20T09:42:52;1.38;;;0.85;;
76296;SDS011;65104;52.994;6.552;2023-07-20T09:45:24;3.05;;;1.50;;
76296;SDS011;65104;52.994;6.552;2023-07-20T09:47:57;1.45;;;1.00;;
76296;SDS011;65104;52.994;6.552;2023-07-20T09:50:28;1.98;;;0.95;;
76296;SDS011;65104;52.994;6.552;2023-07-20T09:52:53;2.22;;;0.98;;
76296;SDS011;65104;52.994;6.552;2023-07-20T09:55:19;2.03;;;1.10;;
76296;SDS011;65104;52.994;6.552;2023-07-20T09:57:46;1.65;;;0.82;;
76296;SDS011;65104;52.994;6.552;2023-07-20T10:00:12;1.40;;;0.90;;
76296;SDS011;65104;52.994;6.552;2023-07-20T10:02:45;0.73;;;0.60;;
76296;SDS011;65104;52.994;6.552;2023-07-20T10:05:14;3.05;;;1.05;;
76296;SDS011;65104;52.994;6.552;2023-07-20T10:07:44;1.80;;;0.88;;
76296;SDS011;65104;52.994;6.552;2023-07-20T10:10:13;2.45;;;1.02;;
76296;SDS011;65104;52.994;6.552;2023-07-20T10:12:40;1.73;;;0.90;;
76296;SDS011;65104;52.994;6.552;2023-07-20T10:18:14;2.42;;;0.63;;
76296;SDS011;65104;52.994;6.552;2023-07-20T10:20:48;1.38;;;1.20;;
76296;SDS011;65104;52.994;6.552;2023-07-20T10:23:16;1.20;;;0.75;;
76296;SDS011;65104;52.994;6.552;2023-07-20T10:25:42;1.92;;;0.60;;
76296;SDS011;65104;52.994;6.552;2023-07-20T10:28:08;1.05;;;0.77;;
76296;SDS011;65104;52.994;6.552;2023-07-20T10:30:35;2.90;;;1.20;;
76296;SDS011;65104;52.994;6.552;2023-07-20T10:33:02;1.70;;;1.10;;
76296;SDS011;65104;52.994;6.552;2023-07-20T10:35:28;1.35;;;0.80;;
76296;SDS011;65104;52.994;6.552;2023-07-20T10:37:54;2.38;;;1.23;;
76296;SDS011;65104;52.994;6.552;2023-07-20T10:40:34;4.07;;;0.93;;
76296;SDS011;65104;52.994;6.552;2023-07-20T10:43:04;1.15;;;1.00;;
76296;SDS011;65104;52.994;6.552;2023-07-20T10:45:33;1.63;;;0.80;;
76296;SDS011;65104;52.994;6.552;2023-07-20T10:47:58;6.72;;;1.40;;
76296;SDS011;65104;52.994;6.552;2023-07-20T10:50:24;1.08;;;0.77;;
76296;SDS011;65104;52.994;6.552;2023-07-20T10:53:09;1.38;;;0.68;;
76296;SDS011;65104;52.994;6.552;2023-07-20T10:55:36;1.17;;;0.80;;
76296;SDS011;65104;52.994;6.552;2023-07-20T10:58:08;1.63;;;0.88;;
76296;SDS011;65104;52.994;6.552;2023-07-20T11:00:54;3.72;;;1.10;;
76296;SDS011;65104;52.994;6.552;2023-07-20T11:03:34;2.08;;;0.65;;
76296;SDS011;65104;52.994;6.552;2023-07-20T11:08:57;0.82;;;0.77;;
76296;SDS011;65104;52.994;6.552;2023-07-20T11:11:28;1.80;;;0.80;;
76296;SDS011;65104;52.994;6.552;2023-07-20T11:16:43;2.90;;;0.82;;
76296;SDS011;65104;52.994;6.552;2023-07-20T11:21:54;0.65;;;0.65;;
76296;SDS011;65104;52.994;6.552;2023-07-20T11:24:23;1.20;;;0.80;;
76296;SDS011;65104;52.994;6.552;2023-07-20T11:26:49;1.92;;;0.70;;
76296;SDS011;65104;52.994;6.552;2023-07-20T11:29:17;2.55;;;1.10;;
76296;SDS011;65104;52.994;6.552;2023-07-20T11:31:44;1.90;;;0.70;;
76296;SDS011;65104;52.994;6.552;2023-07-20T11:34:11;2.05;;;0.63;;
76296;SDS011;65104;52.994;6.552;2023-07-20T11:36:39;2.92;;;0.75;;
76296;SDS011;65104;52.994;6.552;2023-07-20T11:39:06;1.15;;;0.60;;
76296;SDS011;65104;52.994;6.552;2023-07-20T11:41:34;2.90;;;0.82;;
76296;SDS011;65104;52.994;6.552;2023-07-20T11:43:59;2.80;;;0.88;;
76296;SDS011;65104;52.994;6.552;2023-07-20T11:46:24;2.85;;;1.00;;
76296;SDS011;65104;52.994;6.552;2023-07-20T11:48:55;1.65;;;0.93;;
76296;SDS011;65104;52.994;6.552;2023-07-20T11:51:21;3.13;;;1.00;;
76296;SDS011;65104;52.994;6.552;2023-07-20T11:53:47;1.30;;;0.70;;
76296;SDS011;65104;52.994;6.552;2023-07-20T11:56:13;1.13;;;0.75;;
76296;SDS011;65104;52.994;6.552;2023-07-20T11:58:42;1.85;;;0.70;;
76296;SDS011;65104;52.994;6.552;2023-07-20T12:01:09;1.42;;;0.70;;
76296;SDS011;65104;52.994;6.552;2023-07-20T12:03:36;3.03;;;0.95;;
76296;SDS011;65104;52.994;6.552;2023-07-20T12:06:10;1.63;;;1.05;;
76296;SDS011;65104;52.994;6.552;2023-07-20T12:08:42;1.73;;;0.90;;
76296;SDS011;65104;52.994;6.552;2023-07-20T12:11:09;1.05;;;0.80;;
76296;SDS011;65104;52.994;6.552;2023-07-20T12:13:43;1.48;;;0.82;;
76296;SDS011;65104;52.994;6.552;2023-07-20T12:16:10;2.47;;;1.00;;
76296;SDS011;65104;52.994;6.552;2023-07-20T12:18:42;1.75;;;0.90;;
76296;SDS011;65104;52.994;6.552;2023-07-20T12:21:08;2.65;;;1.00;;
76296;SDS011;65104;52.994;6.552;2023-07-20T12:23:43;2.53;;;0.82;;
76296;SDS011;65104;52.994;6.552;2023-07-20T12:26:10;1.65;;;0.70;;
76296;SDS011;65104;52.994;6.552;2023-07-20T12:28:38;1.88;;;1.05;;
76296;SDS011;65104;52.994;6.552;2023-07-20T12:31:06;4.18;;;0.90;;
76296;SDS011;65104;52.994;6.552;2023-07-20T12:33:32;1.50;;;0.60;;
76296;SDS011;65104;52.994;6.552;2023-07-20T12:35:57;1.00;;;0.80;;
76296;SDS011;65104;52.994;6.552;2023-07-20T12:38:24;3.67;;;1.05;;
76296;SDS011;65104;52.994;6.552;2023-07-20T12:40:50;1.23;;;0.85;;
76296;SDS011;65104;52.994;6.552;2023-07-20T12:43:16;2.05;;;0.90;;
76296;SDS011;65104;52.994;6.552;2023-07-20T12:45:41;2.90;;;0.80;;
76296;SDS011;65104;52.994;6.552;2023-07-20T12:48:08;2.17;;;1.00;;
76296;SDS011;65104;52.994;6.552;2023-07-20T12:50:33;1.63;;;1.30;;
76296;SDS011;65104;52.994;6.552;2023-07-20T12:52:59;1.90;;;1.05;;
76296;SDS011;65104;52.994;6.552;2023-07-20T12:55:24;1.67;;;1.50;;
76296;SDS011;65104;52.994;6.552;2023-07-20T12:57:49;1.10;;;1.00;;
76296;SDS011;65104;52.994;6.552;2023-07-20T13:00:15;1.52;;;0.88;;
76296;SDS011;65104;52.994;6.552;2023-07-20T13:02:41;2.50;;;1.35;;
76296;SDS011;65104;52.994;6.552;2023-07-20T13:05:08;4.22;;;1.15;;
76296;SDS011;65104;52.994;6.552;2023-07-20T13:07:34;2.28;;;0.98;;
76296;SDS011;65104;52.994;6.552;2023-07-20T13:10:02;1.63;;;0.60;;
76296;SDS011;65104;52.994;6.552;2023-07-20T13:12:29;2.00;;;1.08;;
76296;SDS011;65104;52.994;6.552;2023-07-20T13:14:55;4.65;;;1.17;;
76296;SDS011;65104;52.994;6.552;2023-07-20T13:17:21;1.30;;;0.75;;
76296;SDS011;65104;52.994;6.552;2023-07-20T13:19:49;2.40;;;1.20;;
76296;SDS011;65104;52.994;6.552;2023-07-20T13:22:15;2.40;;;1.10;;
76296;SDS011;65104;52.994;6.552;2023-07-20T13:24:41;1.60;;;0.70;;
76296;SDS011;65104;52.994;6.552;2023-07-20T13:27:07;2.00;;;1.00;;
76296;SDS011;65104;52.994;6.552;2023-07-20T13:29:32;3.00;;;1.10;;
76296;SDS011;65104;52.994;6.552;2023-07-20T13:31:58;2.42;;;1.10;;
76296;SDS011;65104;52.994;6.552;2023-07-20T13:34:23;1.30;;;1.05;;
76296;SDS011;65104;52.994;6.552;2023-07-20T13:36:49;3.20;;;1.25;;
76296;SDS011;65104;52.994;6.552;2023-07-20T13:39:14;2.05;;;0.82;;
76296;SDS011;65104;52.994;6.552;2023-07-20T13:41:40;1.75;;;1.33;;
76296;SDS011;65104;52.994;6.552;2023-07-20T13:44:05;1.10;;;1.00;;
76296;SDS011;65104;52.994;6.552;2023-07-20T13:46:31;2.90;;;0.90;;
76296;SDS011;65104;52.994;6.552;2023-07-20T13:48:56;1.75;;;0.85;;
76296;SDS011;65104;52.994;6.552;2023-07-20T13:51:21;2.83;;;1.25;;
76296;SDS011;65104;52.994;6.552;2023-07-20T13:53:47;1.73;;;1.40;;
76296;SDS011;65104;52.994;6.552;2023-07-20T13:56:13;2.40;;;1.23;;
76296;SDS011;65104;52.994;6.552;2023-07-20T13:58:39;1.27;;;1.13;;
76296;SDS011;65104;52.994;6.552;2023-07-20T14:01:04;2.22;;;1.20;;
76296;SDS011;65104;52.994;6.552;2023-07-20T14:03:29;1.30;;;0.80;;
76296;SDS011;65104;52.994;6.552;2023-07-20T14:05:55;1.35;;;0.90;;
76296;SDS011;65104;52.994;6.552;2023-07-20T14:08:21;1.30;;;0.90;;
76296;SDS011;65104;52.994;6.552;2023-07-20T14:10:47;3.05;;;0.90;;
76296;SDS011;65104;52.994;6.552;2023-07-20T14:13:13;1.08;;;0.68;;
76296;SDS011;65104;52.994;6.552;2023-07-20T14:15:39;1.58;;;1.05;;
76296;SDS011;65104;52.994;6.552;2023-07-20T14:18:04;2.20;;;1.20;;
76296;SDS011;65104;52.994;6.552;2023-07-20T14:20:30;1.63;;;1.00;;
76296;SDS011;65104;52.994;6.552;2023-07-20T14:22:55;1.40;;;1.00;;
76296;SDS011;65104;52.994;6.552;2023-07-20T14:25:20;1.95;;;0.93;;
76296;SDS011;65104;52.994;6.552;2023-07-20T14:27:46;3.45;;;1.23;;
76296;SDS011;65104;52.994;6.552;2023-07-20T14:30:11;1.83;;;0.75;;
76296;SDS011;65104;52.994;6.552;2023-07-20T14:32:38;2.67;;;1.02;;
76296;SDS011;65104;52.994;6.552;2023-07-20T14:35:03;2.25;;;1.00;;
76296;SDS011;65104;52.994;6.552;2023-07-20T14:37:29;1.63;;;0.80;;
76296;SDS011;65104;52.994;6.552;2023-07-20T14:39:54;1.20;;;0.90;;
76296;SDS011;65104;52.994;6.552;2023-07-20T14:42:20;1.35;;;0.90;;
76296;SDS011;65104;52.994;6.552;2023-07-20T14:44:45;1.23;;;0.80;;
76296;SDS011;65104;52.994;6.552;2023-07-20T14:47:11;1.95;;;0.82;;
76296;SDS011;65104;52.994;6.552;2023-07-20T14:49:36;1.20;;;0.75;;
76296;SDS011;65104;52.994;6.552;2023-07-20T14:52:02;1.80;;;0.60;;
76296;SDS011;65104;52.994;6.552;2023-07-20T14:54:28;1.80;;;0.98;;
76296;SDS011;65104;52.994;6.552;2023-07-20T14:56:54;1.55;;;0.90;;
76296;SDS011;65104;52.994;6.552;2023-07-20T14:59:19;2.20;;;1.20;;
76296;SDS011;65104;52.994;6.552;2023-07-20T15:01:45;1.83;;;0.95;;
76296;SDS011;65104;52.994;6.552;2023-07-20T15:04:11;2.58;;;1.00;;
76296;SDS011;65104;52.994;6.552;2023-07-20T15:06:37;1.35;;;0.70;;
76296;SDS011;65104;52.994;6.552;2023-07-20T15:09:02;1.55;;;1.08;;
76296;SDS011;65104;52.994;6.552;2023-07-20T15:11:28;1.63;;;0.75;;